createdAt,value
2022-08-02T00:01:47.217Z,99558.63
2022-08-02T00:04:17.129Z,99555.28
2022-08-02T00:06:45.399Z,99553.81
2022-08-02T00:09:15.236Z,99546.38
2022-08-02T00:11:43.804Z,99548.13
2022-08-02T00:14:12.700Z,99548.22
2022-08-02T00:16:41.308Z,99546.22
2022-08-02T00:19:09.701Z,99550.53
2022-08-02T00:21:39.588Z,99554.75
2022-08-02T00:24:30.134Z,99555.59
2022-08-02T00:26:57.608Z,99554.25
2022-08-02T00:29:26.026Z,99560.50
2022-08-02T00:31:55.352Z,99572.88
2022-08-02T00:34:28.781Z,99571.00
2022-08-02T00:37:01.529Z,99560.38
2022-08-02T00:39:33.360Z,99557.38
2022-08-02T00:42:03.068Z,99560.53
2022-08-02T00:44:31.457Z,99566.44
2022-08-02T00:46:59.986Z,99559.47
2022-08-02T00:49:28.520Z,99561.03
2022-08-02T00:51:57.036Z,99561.81
2022-08-02T00:54:26.876Z,99564.41
2022-08-02T00:56:55.410Z,99561.66
2022-08-02T00:59:23.866Z,99567.69
2022-08-02T01:01:56.626Z,99571.22
2022-08-02T01:04:31.392Z,99567.84
2022-08-02T01:07:00.809Z,99569.72
2022-08-02T01:09:30.948Z,99575.69
2022-08-02T01:12:02.701Z,99571.44
2022-08-02T01:14:31.442Z,99567.91
2022-08-02T01:17:04.478Z,99563.91
2022-08-02T01:19:36.229Z,99573.88
2022-08-02T01:22:15.228Z,99580.22
2022-08-02T01:24:57.570Z,99574.44
2022-08-02T01:27:35.219Z,99590.16
2022-08-02T01:30:07.418Z,99589.56
2022-08-02T01:32:38.729Z,99586.19
2022-08-02T01:35:10.560Z,99581.88
2022-08-02T01:37:41.282Z,99584.31
2022-08-02T01:40:10.781Z,99581.88
2022-08-02T01:42:40.382Z,99590.31
2022-08-02T01:45:13.520Z,99591.88
2022-08-02T01:47:42.764Z,99590.84
2022-08-02T01:50:13.451Z,99595.13
2022-08-02T01:52:53.544Z,99592.66
2022-08-02T01:55:33.490Z,99595.47
2022-08-02T01:58:14.926Z,99590.72
2022-08-02T02:00:46.455Z,99589.97
2022-08-02T02:03:17.731Z,99585.03
2022-08-02T02:05:48.484Z,99585.34
2022-08-02T02:08:27.253Z,99595.06
2022-08-02T02:10:57.847Z,99589.22
2022-08-02T02:13:46.678Z,99588.44
2022-08-02T02:16:17.549Z,99584.91
2022-08-02T02:18:46.543Z,99593.75
2022-08-02T02:21:16.833Z,99600.50
2022-08-02T02:23:45.399Z,99593.53
2022-08-02T02:26:20.896Z,99605.59
2022-08-02T02:29:01.822Z,99603.25
2022-08-02T02:31:34.623Z,99602.72
2022-08-02T02:34:04.593Z,99610.56
2022-08-02T02:36:35.204Z,99602.16
2022-08-02T02:39:10.179Z,99611.66
2022-08-02T02:41:42.380Z,99602.34
2022-08-02T02:44:12.171Z,99604.84
2022-08-02T02:46:43.110Z,99609.78
2022-08-02T02:49:12.599Z,99606.28
2022-08-02T02:51:42.409Z,99610.84
2022-08-02T02:54:30.501Z,99610.16
2022-08-02T02:57:02.103Z,99612.13
2022-08-02T02:59:30.829Z,99620.03
2022-08-02T03:02:01.339Z,99620.88
2022-08-02T03:04:36.064Z,99625.16
2022-08-02T03:07:18.962Z,99626.06
2022-08-02T03:09:53.999Z,99621.75
2022-08-02T03:12:30.560Z,99620.50
2022-08-02T03:14:59.840Z,99623.47
2022-08-02T03:17:38.506Z,99623.13
2022-08-02T03:20:09.573Z,99620.41
2022-08-02T03:22:38.273Z,99627.06
2022-08-02T03:25:07.473Z,99623.53
2022-08-02T03:27:36.323Z,99621.09
2022-08-02T03:30:06.132Z,99624.47
2022-08-02T03:32:36.662Z,99626.13
2022-08-02T03:35:06.834Z,99623.47
2022-08-02T03:37:37.491Z,99619.88
2022-08-02T03:40:08.518Z,99631.06
2022-08-02T03:42:37.113Z,99632.63
2022-08-02T03:45:08.814Z,99632.63
2022-08-02T03:47:39.487Z,99630.91
2022-08-02T03:50:09.097Z,99630.09
2022-08-02T03:52:38.190Z,99636.31
2022-08-02T03:55:07.103Z,99636.31
2022-08-02T03:57:38.257Z,99633.94
2022-08-02T04:00:07.924Z,99630.34
2022-08-02T04:02:42.167Z,99637.97
2022-08-02T04:05:10.962Z,99638.69
2022-08-02T04:08:33.586Z,99636.00
2022-08-02T04:10:27.951Z,99641.78
2022-08-02T04:12:56.568Z,99642.56
2022-08-02T04:15:25.301Z,99642.28
2022-08-02T04:17:57.644Z,99651.47
2022-08-02T04:20:29.280Z,99645.06
2022-08-02T04:23:00.196Z,99655.19
2022-08-02T04:25:34.465Z,99658.59
2022-08-02T04:28:16.658Z,99668.72
2022-08-02T04:30:47.710Z,99665.91
2022-08-02T04:33:17.979Z,99665.69
2022-08-02T04:35:46.804Z,99674.13
2022-08-02T04:38:16.048Z,99665.41
2022-08-02T04:40:52.154Z,99664.47
2022-08-02T04:43:20.970Z,99662.66
2022-08-02T04:45:51.904Z,99665.84
2022-08-02T04:48:21.942Z,99662.00
2022-08-02T04:50:51.002Z,99665.31
2022-08-02T04:53:19.922Z,99654.78
2022-08-02T04:55:48.434Z,99648.53
2022-08-02T05:01:05.614Z,99655.31
2022-08-02T05:03:35.737Z,99662.66
2022-08-02T05:06:04.160Z,99659.78
2022-08-02T05:08:52.466Z,99666.25
2022-08-02T05:11:22.068Z,99665.78
2022-08-02T05:13:58.507Z,99667.00
2022-08-02T05:16:31.383Z,99670.94
2022-08-02T05:19:02.660Z,99668.16
2022-08-02T05:21:31.620Z,99674.66
2022-08-02T05:24:00.216Z,99678.84
2022-08-02T05:26:28.960Z,99675.84
2022-08-02T05:28:57.463Z,99672.72
2022-08-02T05:31:26.070Z,99678.09
2022-08-02T05:33:54.413Z,99672.34
2022-08-02T05:36:25.085Z,99673.59
2022-08-02T05:38:59.719Z,99665.59
2022-08-02T05:41:33.402Z,99660.97
2022-08-02T05:44:02.237Z,99660.69
2022-08-02T05:46:30.703Z,99670.38
2022-08-02T05:48:59.370Z,99664.63
2022-08-02T05:51:32.471Z,99665.91
2022-08-02T05:54:04.479Z,99665.47
2022-08-02T05:56:36.776Z,99673.59
2022-08-02T05:59:05.975Z,99671.50
2022-08-02T06:01:37.222Z,99686.78
2022-08-02T06:04:07.334Z,99686.38
2022-08-02T06:06:37.913Z,99692.63
2022-08-02T06:09:10.337Z,99697.38
2022-08-02T06:11:40.774Z,99698.94
2022-08-02T06:14:09.855Z,99705.13
2022-08-02T06:16:42.391Z,99709.63
2022-08-02T06:19:13.224Z,99703.75
2022-08-02T06:22:31.550Z,99705.19
2022-08-02T06:24:34.235Z,99713.97
2022-08-02T06:27:03.790Z,99712.91
2022-08-02T06:29:38.363Z,99708.16
2022-08-02T06:32:09.243Z,99711.97
2022-08-02T06:34:38.796Z,99720.84
2022-08-02T06:37:13.775Z,99712.19
2022-08-02T06:39:47.316Z,99719.78
2022-08-02T06:42:17.939Z,99730.03
2022-08-02T06:44:58.112Z,99724.84
2022-08-02T06:47:27.437Z,99727.44
2022-08-02T06:49:58.541Z,99723.16
2022-08-02T06:52:30.565Z,99726.06
2022-08-02T06:54:59.973Z,99725.16
2022-08-02T06:57:28.371Z,99725.59
2022-08-02T06:59:56.928Z,99727.06
2022-08-02T07:02:25.299Z,99726.91
2022-08-02T07:04:53.788Z,99724.53
2022-08-02T07:07:22.159Z,99730.50
2022-08-02T07:10:00.210Z,99730.50
2022-08-02T07:12:33.489Z,99727.56
2022-08-02T07:15:03.579Z,99716.00
2022-08-02T07:17:32.670Z,99714.66
2022-08-02T07:20:01.732Z,99713.53
2022-08-02T07:22:30.193Z,99722.59
2022-08-02T07:25:01.024Z,99716.41
2022-08-02T07:27:29.875Z,99714.13
2022-08-02T07:29:59.033Z,99716.97
2022-08-02T07:32:28.615Z,99714.50
2022-08-02T07:34:58.028Z,99713.03
2022-08-02T07:37:53.789Z,99716.16
2022-08-02T07:40:20.914Z,99714.13
2022-08-02T07:42:52.574Z,99723.66
2022-08-02T07:45:23.651Z,99715.28
2022-08-02T07:47:52.220Z,99707.59
2022-08-02T07:50:21.733Z,99720.81
2022-08-02T07:52:57.122Z,99720.47
2022-08-02T07:55:40.033Z,99714.25
2022-08-02T07:58:11.083Z,99726.56
2022-08-02T08:00:41.413Z,99722.44
2022-08-02T08:03:10.286Z,99712.63
2022-08-02T08:05:43.064Z,99713.56
2022-08-02T08:08:17.191Z,99709.72
2022-08-02T08:10:47.674Z,99720.13
2022-08-02T08:13:16.295Z,99705.31
2022-08-02T08:15:52.435Z,99712.88
2022-08-02T08:18:21.503Z,99712.69
2022-08-02T08:20:50.000Z,99714.91
2022-08-02T08:23:18.901Z,99710.50
2022-08-02T08:25:48.630Z,99715.88
2022-08-02T08:28:17.203Z,99718.28
2022-08-02T08:30:47.591Z,99722.16
2022-08-02T08:33:16.538Z,99728.09
2022-08-02T08:35:44.962Z,99727.56
2022-08-02T08:38:13.715Z,99730.41
2022-08-02T08:40:42.382Z,99727.53
2022-08-02T08:43:13.995Z,99725.09
2022-08-02T08:45:43.362Z,99727.53
2022-08-02T08:48:16.113Z,99727.09
2022-08-02T08:51:06.009Z,99737.47
2022-08-02T08:53:39.000Z,99740.50
2022-08-02T08:56:15.382Z,99743.53
2022-08-02T08:58:46.619Z,99739.38
2022-08-02T09:01:17.037Z,99750.06
2022-08-02T09:03:45.660Z,99748.91
2022-08-02T09:06:14.564Z,99739.91
2022-08-02T09:08:43.186Z,99750.81
2022-08-02T09:11:14.963Z,99750.31
2022-08-02T09:13:53.154Z,99746.22
2022-08-02T09:16:32.574Z,99745.25
2022-08-02T09:19:01.852Z,99744.09
2022-08-02T09:21:37.126Z,99747.53
2022-08-02T09:24:19.621Z,99751.13
2022-08-02T09:26:49.597Z,99745.00
2022-08-02T09:29:21.594Z,99744.75
2022-08-02T09:31:50.265Z,99752.97
2022-08-02T09:34:19.731Z,99751.78
2022-08-02T09:36:54.772Z,99758.00
2022-08-02T09:39:27.106Z,99750.41
2022-08-02T09:42:10.840Z,99755.91
2022-08-02T09:44:41.583Z,99752.44
2022-08-02T09:47:15.421Z,99757.56
2022-08-02T09:49:52.636Z,99740.66
2022-08-02T09:52:42.943Z,99732.94
2022-08-02T09:55:14.453Z,99731.47
2022-08-02T09:57:43.786Z,99743.47
2022-08-02T10:00:37.024Z,99732.44
2022-08-02T10:03:19.320Z,99739.97
2022-08-02T10:05:56.026Z,99737.91
2022-08-02T10:08:32.876Z,99736.25
2022-08-02T10:11:02.867Z,99735.75
2022-08-02T10:13:31.759Z,99734.78
2022-08-02T10:16:03.236Z,99734.00
2022-08-02T10:18:40.759Z,99726.91
2022-08-02T10:21:14.913Z,99725.06
2022-08-02T10:23:45.056Z,99735.06
2022-08-02T10:26:18.673Z,99722.50
2022-08-02T10:28:49.770Z,99719.88
2022-08-02T10:31:22.200Z,99714.44
2022-08-02T10:33:53.694Z,99727.22
2022-08-02T10:36:23.976Z,99720.09
2022-08-02T10:38:52.494Z,99723.78
2022-08-02T10:41:35.834Z,99721.31
2022-08-02T10:44:05.492Z,99715.84
2022-08-02T10:46:36.516Z,99719.84
2022-08-02T10:52:08.954Z,99715.78
2022-08-02T10:54:38.942Z,99718.75
2022-08-02T10:57:18.230Z,99713.00
2022-08-02T10:59:46.934Z,99701.13
2022-08-02T11:02:34.468Z,99711.28
2022-08-02T11:05:04.843Z,99704.06
2022-08-02T11:07:34.234Z,99705.03
2022-08-02T11:10:23.083Z,99694.25
2022-08-02T11:13:03.014Z,99696.91
2022-08-02T11:15:31.942Z,99697.13
2022-08-02T11:18:01.715Z,99693.56
2022-08-02T11:20:30.154Z,99693.06
2022-08-02T11:23:19.184Z,99688.88
2022-08-02T11:26:11.304Z,99689.94
2022-08-02T11:28:39.655Z,99689.19
2022-08-02T11:31:07.901Z,99683.94
2022-08-02T11:33:37.813Z,99685.16
2022-08-02T11:36:07.667Z,99683.84
2022-08-02T11:38:36.170Z,99683.00
2022-08-02T11:41:06.309Z,99680.97
2022-08-02T11:43:39.982Z,99680.47
2022-08-02T11:46:14.115Z,99681.78
2022-08-02T11:48:45.115Z,99680.09
2022-08-02T11:51:14.398Z,99694.44
2022-08-02T11:53:47.375Z,99677.13
2022-08-02T11:56:21.915Z,99677.81
2022-08-02T11:59:04.634Z,99690.91
2022-08-02T12:01:42.007Z,99680.72
2022-08-02T12:04:22.588Z,99683.59
2022-08-02T12:07:00.289Z,99683.53
2022-08-02T12:09:34.390Z,99675.44
2022-08-02T12:12:06.057Z,99669.06
2022-08-02T12:14:43.598Z,99676.13
2022-08-02T12:17:21.821Z,99667.91
2022-08-02T12:19:51.695Z,99675.06
2022-08-02T12:22:24.285Z,99674.59
2022-08-02T12:24:56.334Z,99669.06
2022-08-02T12:27:31.803Z,99660.28
2022-08-02T12:30:01.023Z,99665.34
2022-08-02T12:32:29.512Z,99663.34
2022-08-02T12:35:07.082Z,99657.13
2022-08-02T12:37:35.715Z,99660.38
2022-08-02T12:40:14.973Z,99657.00
2022-08-02T12:42:47.449Z,99656.13
2022-08-02T12:45:16.584Z,99660.38
2022-08-02T12:47:49.138Z,99653.22
2022-08-02T12:50:20.988Z,99656.00
2022-08-02T12:52:49.833Z,99659.69
2022-08-02T12:55:19.989Z,99653.47
2022-08-02T12:57:56.337Z,99659.28
2022-08-02T13:00:25.355Z,99654.59
2022-08-02T13:02:53.816Z,99655.81
2022-08-02T13:05:23.886Z,99649.34
2022-08-02T13:07:52.514Z,99653.34
2022-08-02T13:10:21.978Z,99653.56
2022-08-02T13:12:50.526Z,99655.56
2022-08-02T13:15:49.231Z,99661.81
2022-08-02T13:18:07.995Z,99651.75
2022-08-02T13:20:42.871Z,99643.16
2022-08-02T13:23:21.019Z,99649.34
2022-08-02T13:25:52.688Z,99645.34
2022-08-02T13:28:22.873Z,99646.81
2022-08-02T13:30:51.675Z,99643.41
2022-08-02T13:33:20.265Z,99643.72
2022-08-02T13:35:51.062Z,99644.25
2022-08-02T13:38:24.577Z,99642.50
2022-08-02T13:41:04.998Z,99633.78
2022-08-02T13:43:53.763Z,99642.75
2022-08-02T13:46:28.771Z,99630.63
2022-08-02T13:48:58.034Z,99628.75
2022-08-02T13:51:29.052Z,99634.38
2022-08-02T13:53:57.537Z,99625.66
2022-08-02T13:56:35.597Z,99626.59
2022-08-02T13:59:54.749Z,99625.16
2022-08-02T14:01:54.069Z,99626.25
2022-08-02T14:04:22.697Z,99625.09
2022-08-02T14:06:52.882Z,99628.31
2022-08-02T14:09:21.286Z,99621.13
2022-08-02T14:11:49.939Z,99623.53
2022-08-02T14:14:19.051Z,99616.59
2022-08-02T14:16:47.427Z,99613.72
2022-08-02T14:19:17.315Z,99617.88
2022-08-02T14:21:48.235Z,99607.41
2022-08-02T14:24:19.359Z,99615.41
2022-08-02T14:26:48.158Z,99612.88
2022-08-02T14:29:16.480Z,99616.47
2022-08-02T14:31:45.408Z,99611.09
2022-08-02T14:34:14.189Z,99607.38
2022-08-02T14:36:42.633Z,99598.16
2022-08-02T14:39:12.286Z,99603.34
2022-08-02T14:41:59.366Z,99603.34
2022-08-02T14:44:30.104Z,99600.94
2022-08-02T14:46:58.520Z,99598.50
2022-08-02T14:49:27.318Z,99603.47
2022-08-02T14:51:55.843Z,99597.34
2022-08-02T14:54:28.120Z,99602.34
2022-08-02T14:57:02.207Z,99601.63
2022-08-02T14:59:31.446Z,99602.72
2022-08-02T15:01:59.890Z,99603.19
2022-08-02T15:04:28.770Z,99608.59
2022-08-02T15:07:03.841Z,99610.16
2022-08-02T15:09:32.320Z,99609.47
2022-08-02T15:12:05.348Z,99607.81
2022-08-02T15:14:43.178Z,99617.25
2022-08-02T15:17:11.574Z,99608.19
2022-08-02T15:19:58.137Z,99605.28
2022-08-02T15:22:30.109Z,99613.66
2022-08-02T15:24:59.495Z,99612.09
2022-08-02T15:27:29.399Z,99614.72
2022-08-02T15:30:00.620Z,99608.03
2022-08-02T15:32:29.434Z,99600.84
2022-08-02T15:34:57.902Z,99594.28
2022-08-02T15:37:30.881Z,99597.03
2022-08-02T15:40:00.318Z,99591.19
2022-08-02T15:42:31.031Z,99588.19
2022-08-02T15:45:00.346Z,99589.50
2022-08-02T15:47:28.756Z,99595.59
2022-08-02T15:49:58.565Z,99586.88
2022-08-02T15:52:27.710Z,99588.91
2022-08-02T15:54:56.269Z,99590.22
2022-08-02T15:57:24.828Z,99592.13
2022-08-02T15:59:54.936Z,99597.38
2022-08-02T16:02:23.652Z,99594.53
2022-08-02T16:04:52.190Z,99598.81
2022-08-02T16:07:20.624Z,99598.28
2022-08-02T16:09:49.032Z,99601.03
2022-08-02T16:12:17.533Z,99599.69
2022-08-02T16:14:45.859Z,99602.78
2022-08-02T16:17:48.475Z,99609.94
2022-08-02T16:20:05.687Z,99602.41
2022-08-02T16:22:34.221Z,99596.31
2022-08-02T16:25:02.603Z,99603.22
2022-08-02T16:27:31.753Z,99601.53
2022-08-02T16:30:00.210Z,99597.47
2022-08-02T16:32:30.351Z,99602.72
2022-08-02T16:35:08.727Z,99606.06
2022-08-02T16:37:50.327Z,99610.25
2022-08-02T16:40:21.863Z,99608.91
2022-08-02T16:42:51.106Z,99605.34
2022-08-02T16:45:20.935Z,99605.44
2022-08-02T16:47:55.201Z,99612.03
2022-08-02T16:50:27.257Z,99616.84
2022-08-02T16:52:58.280Z,99626.97
2022-08-02T16:55:30.403Z,99628.03
2022-08-02T16:58:01.117Z,99625.84
2022-08-02T17:00:29.690Z,99627.13
2022-08-02T17:03:13.151Z,99631.66
2022-08-02T17:05:56.313Z,99631.25
2022-08-02T17:08:31.605Z,99625.38
2022-08-02T17:11:03.292Z,99620.34
2022-08-02T17:13:34.366Z,99624.88
2022-08-02T17:16:25.919Z,99624.38
2022-08-02T17:18:58.382Z,99623.13
2022-08-02T17:21:28.205Z,99619.56
2022-08-02T17:24:06.241Z,99633.75
2022-08-02T17:26:37.291Z,99632.19
2022-08-02T17:29:15.208Z,99637.63
2022-08-02T17:32:05.448Z,99634.50
2022-08-02T17:34:37.959Z,99637.66
2022-08-02T17:37:07.031Z,99642.25
2022-08-02T17:39:43.242Z,99646.00
2022-08-02T17:42:23.078Z,99644.34
2022-08-02T17:44:52.227Z,99655.91
2022-08-02T17:47:21.033Z,99650.00
2022-08-02T17:49:53.228Z,99653.81
2022-08-02T17:52:51.953Z,99654.25
2022-08-02T17:55:13.398Z,99653.59
2022-08-02T17:57:58.167Z,99659.28
2022-08-02T18:00:33.920Z,99654.66
2022-08-02T18:03:06.196Z,99653.84
2022-08-02T18:08:27.102Z,99658.94
2022-08-02T18:10:56.050Z,99663.66
2022-08-02T18:13:24.713Z,99666.59
2022-08-02T18:15:59.074Z,99662.13
2022-08-02T18:18:30.238Z,99666.03
2022-08-02T18:21:15.666Z,99665.50
2022-08-02T18:23:49.621Z,99658.81
2022-08-02T18:26:28.648Z,99665.41
2022-08-02T18:28:57.309Z,99663.75
2022-08-02T18:31:27.303Z,99672.53
2022-08-02T18:34:01.797Z,99673.66
2022-08-02T18:36:32.973Z,99675.63
2022-08-02T18:39:08.425Z,99670.13
2022-08-02T18:41:37.971Z,99682.66
2022-08-02T18:44:06.972Z,99681.28
2022-08-02T18:46:35.592Z,99687.19
2022-08-02T18:49:06.725Z,99687.78
2022-08-02T18:51:45.245Z,99691.91
2022-08-02T18:54:14.894Z,99697.03
2022-08-02T18:56:47.165Z,99696.03
2022-08-02T18:59:16.201Z,99708.03
2022-08-02T19:01:50.945Z,99706.63
2022-08-02T19:04:26.864Z,99707.09
2022-08-02T19:07:07.296Z,99706.63
2022-08-02T19:09:36.483Z,99713.16
2022-08-02T19:12:09.342Z,99720.59
2022-08-02T19:14:38.783Z,99723.47
2022-08-02T19:17:15.779Z,99725.50
2022-08-02T19:19:56.204Z,99723.69
2022-08-02T19:22:26.082Z,99726.59
2022-08-02T19:25:01.493Z,99723.09
2022-08-02T19:27:32.915Z,99723.84
2022-08-02T19:30:02.044Z,99731.13
2022-08-02T19:32:41.829Z,99733.63
2022-08-02T19:35:29.604Z,99731.25
2022-08-02T19:38:08.553Z,99737.72
2022-08-02T19:40:38.868Z,99731.66
2022-08-02T19:44:23.386Z,99733.22
2022-08-02T19:45:58.074Z,99731.41
2022-08-02T19:48:27.123Z,99726.84
2022-08-02T19:50:59.297Z,99733.06
2022-08-02T19:53:48.005Z,99735.69
2022-08-02T19:59:13.651Z,99736.84
2022-08-02T20:01:48.511Z,99750.72
2022-08-02T20:04:23.019Z,99752.38
2022-08-02T20:06:52.830Z,99752.31
2022-08-02T20:09:33.269Z,99747.28
2022-08-02T20:12:18.825Z,99750.72
2022-08-02T20:14:50.673Z,99751.00
2022-08-02T20:17:21.311Z,99748.59
2022-08-02T20:19:49.848Z,99757.16
2022-08-02T20:22:20.830Z,99753.47
2022-08-02T20:24:50.701Z,99751.94
2022-08-02T20:27:23.078Z,99746.88
2022-08-02T20:29:53.778Z,99749.19
2022-08-02T20:32:24.793Z,99747.97
2022-08-02T20:34:53.463Z,99747.00
2022-08-02T20:38:00.480Z,99752.63
2022-08-02T20:40:16.571Z,99746.06
2022-08-02T20:42:47.764Z,99746.91
2022-08-02T20:45:17.101Z,99748.59
2022-08-02T20:47:50.837Z,99743.81
2022-08-02T20:50:31.866Z,99738.38
2022-08-02T20:53:01.002Z,99740.34
2022-08-02T20:55:31.835Z,99742.19
2022-08-02T20:58:02.528Z,99749.19
2022-08-02T21:00:32.213Z,99738.88
2022-08-02T21:03:00.756Z,99750.63
2022-08-02T21:05:43.795Z,99735.09
2022-08-02T21:08:21.485Z,99745.41
2022-08-02T21:13:46.836Z,99751.91
2022-08-02T21:16:28.368Z,99750.63
2022-08-02T21:19:00.216Z,99753.34
2022-08-02T21:21:29.722Z,99747.66
2022-08-02T21:23:59.975Z,99754.94
2022-08-02T21:26:31.090Z,99752.25
2022-08-02T21:29:03.825Z,99752.97
2022-08-02T21:31:36.454Z,99758.06
2022-08-02T21:34:21.731Z,99762.53
2022-08-02T21:36:52.161Z,99751.44
2022-08-02T21:39:20.728Z,99751.28
2022-08-02T21:41:51.012Z,99754.53
2022-08-02T21:44:21.886Z,99751.16
2022-08-02T21:46:51.752Z,99755.06
2022-08-02T21:49:20.560Z,99762.09
2022-08-02T21:51:50.507Z,99759.38
2022-08-02T21:57:15.109Z,99760.06
2022-08-02T21:59:45.157Z,99759.03
2022-08-02T22:02:14.909Z,99761.19
2022-08-02T22:04:47.853Z,99760.94
2022-08-02T22:07:23.829Z,99757.41
2022-08-02T22:09:53.170Z,99767.47
2022-08-02T22:12:26.309Z,99767.34
2022-08-02T22:14:56.695Z,99763.69
2022-08-02T22:17:51.036Z,99766.41
2022-08-02T22:20:19.995Z,99765.81
2022-08-02T22:22:50.799Z,99767.88
2022-08-02T22:25:27.268Z,99773.59
2022-08-02T22:28:39.412Z,99768.91
2022-08-02T22:30:57.333Z,99770.47
2022-08-02T22:33:36.967Z,99780.31
2022-08-02T22:36:05.529Z,99778.97
2022-08-02T22:38:34.100Z,99778.97
2022-08-02T22:41:02.530Z,99782.72
2022-08-02T22:43:32.448Z,99779.13
2022-08-02T22:46:02.782Z,99779.13
2022-08-02T22:48:31.171Z,99782.50
2022-08-02T22:51:01.352Z,99784.44
2022-08-02T22:53:36.144Z,99781.09
2022-08-02T22:56:05.232Z,99778.66
2022-08-02T22:58:43.167Z,99661.16
2022-08-02T22:58:54.018Z,99733.09
2022-08-02T22:59:07.276Z,99788.06
2022-08-02T22:59:12.044Z,99747.38
2022-08-02T23:01:23.554Z,99780.59
2022-08-02T23:03:52.161Z,99783.97
2022-08-02T23:06:22.699Z,99791.81
2022-08-02T23:08:51.364Z,99785.53
2022-08-02T23:11:19.653Z,99781.69
2022-08-02T23:13:49.460Z,99785.50
2022-08-02T23:16:30.675Z,99791.47
2022-08-02T23:19:08.862Z,99787.84
2022-08-02T23:22:01.518Z,99791.28
2022-08-02T23:24:27.353Z,99797.31
2022-08-02T23:26:55.710Z,99789.53
2022-08-02T23:29:25.411Z,99792.84
2022-08-02T23:31:53.785Z,99792.13
2022-08-02T23:34:23.690Z,99792.06
2022-08-02T23:36:52.028Z,99789.41
2022-08-02T23:39:20.430Z,99793.13
2022-08-02T23:41:54.610Z,99783.03
2022-08-02T23:44:26.061Z,99792.31
2022-08-02T23:46:55.822Z,99783.50
2022-08-02T23:49:24.733Z,99782.75
2022-08-02T23:51:54.025Z,99781.09
2022-08-02T23:54:23.760Z,99787.13
2022-08-02T23:56:52.163Z,99796.75
2022-08-02T23:59:20.489Z,99794.25
